createdAt,value
2023-04-08T00:02:06.167Z,9.60
2023-04-08T00:05:10.665Z,9.65
2023-04-08T00:08:13.462Z,9.70
2023-04-08T00:11:16.196Z,9.73
2023-04-08T00:14:18.977Z,9.72
2023-04-08T00:17:21.881Z,9.76
2023-04-08T00:20:26.336Z,9.76
2023-04-08T00:23:29.065Z,9.70
2023-04-08T00:26:32.077Z,9.72
2023-04-08T00:29:35.034Z,9.65
2023-04-08T00:32:37.943Z,9.66
2023-04-08T00:35:42.096Z,9.64
2023-04-08T00:38:45.083Z,9.59
2023-04-08T00:41:47.893Z,9.56
2023-04-08T00:44:50.983Z,9.60
2023-04-08T00:47:53.717Z,9.67
2023-04-08T00:50:57.933Z,9.71
2023-04-08T00:54:01.539Z,9.67
2023-04-08T00:57:05.255Z,9.77
2023-04-08T01:00:09.780Z,9.76
2023-04-08T01:03:18.856Z,9.79
2023-04-08T01:06:31.420Z,9.74
2023-04-08T01:09:39.203Z,9.71
2023-04-08T01:12:49.513Z,9.65
2023-04-08T01:15:52.859Z,9.64
2023-04-08T01:18:57.469Z,9.57
2023-04-08T01:22:11.259Z,9.46
2023-04-08T01:25:20.059Z,9.43
2023-04-08T01:28:28.084Z,9.52
2023-04-08T01:31:32.864Z,9.53
2023-04-08T01:34:36.710Z,9.53
2023-04-08T01:37:40.684Z,9.56
2023-04-08T01:40:44.138Z,9.52
2023-04-08T01:43:49.747Z,9.53
2023-04-08T01:46:54.370Z,9.48
2023-04-08T01:49:58.918Z,9.45
2023-04-08T01:53:03.315Z,9.51
2023-04-08T01:56:10.399Z,9.49
2023-04-08T01:59:17.096Z,9.43
2023-04-08T02:02:22.915Z,9.41
2023-04-08T02:05:25.934Z,9.43
2023-04-08T02:08:28.884Z,9.49
2023-04-08T02:11:31.773Z,9.49
2023-04-08T02:14:36.237Z,9.52
2023-04-08T02:17:45.425Z,9.45
2023-04-08T02:20:54.678Z,9.49
2023-04-08T02:24:01.216Z,9.47
2023-04-08T02:27:06.059Z,9.40
2023-04-08T02:30:12.919Z,9.34
2023-04-08T02:33:16.406Z,9.34
2023-04-08T02:36:19.432Z,9.28
2023-04-08T02:39:22.278Z,9.22
2023-04-08T02:42:25.660Z,9.17
2023-04-08T02:45:32.520Z,9.04
2023-04-08T02:48:35.387Z,9.07
2023-04-08T02:51:38.242Z,9.09
2023-04-08T02:54:41.117Z,9.08
2023-04-08T02:57:44.357Z,8.98
2023-04-08T03:00:48.876Z,8.97
2023-04-08T03:03:51.853Z,9.01
2023-04-08T03:06:54.738Z,9.05
2023-04-08T03:09:57.539Z,9.09
2023-04-08T03:13:00.354Z,9.13
2023-04-08T03:16:04.689Z,9.17
2023-04-08T03:19:07.512Z,9.05
2023-04-08T03:22:10.819Z,8.94
2023-04-08T03:25:13.792Z,8.90
2023-04-08T03:28:16.615Z,8.90
2023-04-08T03:31:21.260Z,8.77
2023-04-08T03:34:24.569Z,8.71
2023-04-08T03:37:27.343Z,8.69
2023-04-08T03:40:30.792Z,8.68
2023-04-08T03:43:34.142Z,8.74
2023-04-08T03:46:39.568Z,8.78
2023-04-08T03:49:42.326Z,8.82
2023-04-08T03:52:45.029Z,8.87
2023-04-08T03:55:50.583Z,8.82
2023-04-08T03:58:53.362Z,8.81
2023-04-08T04:01:57.794Z,8.85
2023-04-08T04:05:00.966Z,8.90
2023-04-08T04:08:03.756Z,8.95
2023-04-08T04:11:06.572Z,8.99
2023-04-08T04:14:09.232Z,8.98
2023-04-08T04:17:13.623Z,8.97
2023-04-08T04:20:16.631Z,8.94
2023-04-08T04:23:19.559Z,8.95
2023-04-08T04:26:22.269Z,8.93
2023-04-08T04:29:25.300Z,8.94
2023-04-08T04:32:29.482Z,8.90
2023-04-08T04:35:32.259Z,8.86
2023-04-08T04:38:34.923Z,8.80
2023-04-08T04:41:40.607Z,8.76
2023-04-08T04:44:44.593Z,8.65
2023-04-08T04:47:48.922Z,8.53
2023-04-08T04:50:56.388Z,8.44
2023-04-08T04:53:59.100Z,8.41
2023-04-08T04:57:01.900Z,8.37
2023-04-08T05:00:05.938Z,8.31
2023-04-08T05:03:10.492Z,8.31
2023-04-08T05:06:13.564Z,8.27
2023-04-08T05:09:16.759Z,8.25
2023-04-08T05:12:20.690Z,8.21
2023-04-08T05:15:23.692Z,8.19
2023-04-08T05:18:27.971Z,8.12
2023-04-08T05:21:30.762Z,8.06
2023-04-08T05:24:33.637Z,7.99
2023-04-08T05:27:36.663Z,7.91
2023-04-08T05:30:39.465Z,7.91
2023-04-08T05:33:43.671Z,7.87
2023-04-08T05:36:46.471Z,7.78
2023-04-08T05:39:49.287Z,7.84
2023-04-08T05:42:52.082Z,7.93
2023-04-08T05:45:54.842Z,7.90
2023-04-08T05:48:58.964Z,7.99
2023-04-08T05:52:01.939Z,8.08
2023-04-08T05:55:05.181Z,8.11
2023-04-08T05:58:08.042Z,8.27
2023-04-08T06:01:10.835Z,8.39
2023-04-08T06:04:15.042Z,8.54
2023-04-08T06:07:17.869Z,8.65
2023-04-08T06:10:20.599Z,8.74
2023-04-08T06:13:25.519Z,8.85
2023-04-08T06:16:28.578Z,8.91
2023-04-08T06:19:32.873Z,8.93
2023-04-08T06:22:36.001Z,8.97
2023-04-08T06:25:38.956Z,9.02
2023-04-08T06:28:41.642Z,9.03
2023-04-08T06:31:44.527Z,9.05
2023-04-08T06:34:48.584Z,9.14
2023-04-08T06:37:51.237Z,9.17
2023-04-08T06:40:54.111Z,9.25
2023-04-08T06:43:57.304Z,9.33
2023-04-08T06:47:00.262Z,9.36
2023-04-08T06:50:04.529Z,9.40
2023-04-08T06:53:07.275Z,9.46
2023-04-08T06:56:09.913Z,9.47
2023-04-08T06:59:12.711Z,9.44
2023-04-08T07:02:15.997Z,9.50
2023-04-08T07:05:20.081Z,9.54
2023-04-08T07:08:22.780Z,9.57
2023-04-08T07:11:25.850Z,9.64
2023-04-08T07:14:29.812Z,9.80
2023-04-08T07:17:32.731Z,9.91
2023-04-08T07:20:38.514Z,9.99
2023-04-08T07:23:41.499Z,10.03
2023-04-08T07:26:44.217Z,9.98
2023-04-08T07:29:47.062Z,9.99
2023-04-08T07:32:49.994Z,10.02
2023-04-08T07:35:54.254Z,10.03
2023-04-08T07:38:56.980Z,10.13
2023-04-08T07:41:59.759Z,10.26
2023-04-08T07:45:02.584Z,10.46
2023-04-08T07:48:05.940Z,10.62
2023-04-08T07:51:11.707Z,10.75
2023-04-08T07:54:17.310Z,10.80
2023-04-08T07:57:20.058Z,10.74
2023-04-08T08:00:23.183Z,10.77
2023-04-08T08:03:26.076Z,10.73
2023-04-08T08:06:32.269Z,10.72
2023-04-08T08:09:35.328Z,10.77
2023-04-08T08:12:38.171Z,10.82
2023-04-08T08:15:40.991Z,10.88
2023-04-08T08:18:43.719Z,10.98
2023-04-08T08:21:47.915Z,11.17
2023-04-08T08:24:50.547Z,11.17
2023-04-08T08:27:53.349Z,11.17
2023-04-08T08:30:56.460Z,11.28
2023-04-08T08:33:59.448Z,11.41
2023-04-08T08:37:03.709Z,11.46
2023-04-08T08:40:07.281Z,11.63
2023-04-08T08:43:11.024Z,11.82
2023-04-08T08:46:17.425Z,11.95
2023-04-08T08:49:20.357Z,12.02
2023-04-08T08:52:24.456Z,12.00
2023-04-08T08:55:50.267Z,12.02
2023-04-08T08:58:50.186Z,12.15
2023-04-08T09:01:52.965Z,12.35
2023-04-08T09:05:01.090Z,12.42
2023-04-08T09:08:05.480Z,12.53
2023-04-08T09:11:16.958Z,12.66
2023-04-08T09:14:21.078Z,12.82
2023-04-08T09:17:34.126Z,12.79
2023-04-08T09:20:36.808Z,12.76
2023-04-08T09:23:43.005Z,12.70
2023-04-08T09:26:48.043Z,12.73
2023-04-08T09:29:50.714Z,12.82
2023-04-08T09:32:54.922Z,12.97
2023-04-08T09:35:58.418Z,13.07
2023-04-08T09:39:02.612Z,13.06
2023-04-08T09:42:11.765Z,12.93
2023-04-08T09:45:14.981Z,12.90
2023-04-08T09:48:21.871Z,12.81
2023-04-08T09:51:25.448Z,12.80
2023-04-08T09:54:37.024Z,12.97
2023-04-08T09:57:43.445Z,13.34
2023-04-08T10:00:51.043Z,13.58
2023-04-08T10:03:57.138Z,13.75
2023-04-08T10:07:06.262Z,13.85
2023-04-08T10:10:12.522Z,13.95
2023-04-08T10:13:16.430Z,14.04
2023-04-08T10:16:24.869Z,14.00
2023-04-08T10:19:40.734Z,13.84
2023-04-08T10:22:50.110Z,13.82
2023-04-08T10:25:54.447Z,13.61
2023-04-08T10:28:57.141Z,13.49
2023-04-08T10:32:00.329Z,13.41
2023-04-08T10:35:04.266Z,13.24
2023-04-08T10:38:08.515Z,13.09
2023-04-08T10:41:14.254Z,12.93
2023-04-08T10:44:17.915Z,12.85
2023-04-08T10:47:28.565Z,12.68
2023-04-08T10:50:32.396Z,12.53
2023-04-08T10:53:37.135Z,12.44
2023-04-08T10:56:47.775Z,12.34
2023-04-08T10:59:50.800Z,12.32
2023-04-08T11:02:54.699Z,12.27
2023-04-08T11:05:59.446Z,12.20
2023-04-08T11:09:04.393Z,12.18
2023-04-08T11:12:09.203Z,12.16
2023-04-08T11:15:14.474Z,12.08
2023-04-08T11:18:18.054Z,12.07
2023-04-08T11:21:22.354Z,12.04
2023-04-08T11:24:25.207Z,12.12
2023-04-08T11:27:29.602Z,12.18
2023-04-08T11:30:32.773Z,12.23
2023-04-08T11:33:36.327Z,12.29
2023-04-08T11:36:41.901Z,12.29
2023-04-08T11:39:45.311Z,12.29
2023-04-08T11:42:50.180Z,12.29
2023-04-08T11:45:53.328Z,12.28
2023-04-08T11:49:01.163Z,12.23
2023-04-08T11:52:03.816Z,12.26
2023-04-08T11:55:07.357Z,12.16
2023-04-08T11:58:11.634Z,12.17
2023-04-08T12:01:14.427Z,12.19
2023-04-08T12:04:17.184Z,12.13
2023-04-08T12:07:20.142Z,12.15
2023-04-08T12:10:25.176Z,12.12
2023-04-08T12:13:29.263Z,12.13
2023-04-08T12:16:32.116Z,12.16
2023-04-08T12:19:36.424Z,12.18
2023-04-08T12:22:41.210Z,12.21
2023-04-08T12:25:44.706Z,12.14
2023-04-08T12:28:48.791Z,12.14
2023-04-08T12:31:51.743Z,12.19
2023-04-08T12:34:54.539Z,12.17
2023-04-08T12:37:57.222Z,12.18
2023-04-08T12:41:00.012Z,12.21
2023-04-08T12:44:04.094Z,12.18
2023-04-08T12:47:07.147Z,12.18
2023-04-08T12:50:11.130Z,12.11
2023-04-08T12:53:13.998Z,12.06
2023-04-08T12:56:16.741Z,12.02
2023-04-08T12:59:20.868Z,12.02
2023-04-08T13:02:25.609Z,12.02
2023-04-08T13:05:41.988Z,12.01
2023-04-08T13:08:45.772Z,12.09
2023-04-08T13:11:48.443Z,12.12
2023-04-08T13:14:52.895Z,12.17
2023-04-08T13:17:56.087Z,12.16
2023-04-08T13:20:59.434Z,12.23
2023-04-08T13:24:02.460Z,12.29
2023-04-08T13:27:05.304Z,12.33
2023-04-08T13:30:11.090Z,12.36
2023-04-08T13:33:13.750Z,12.41
2023-04-08T13:36:16.491Z,12.45
2023-04-08T13:39:19.334Z,12.42
2023-04-08T13:42:22.037Z,12.30
2023-04-08T13:45:26.571Z,12.25
2023-04-08T13:48:29.222Z,12.21
2023-04-08T13:51:31.967Z,12.17
2023-04-08T13:54:34.926Z,12.21
2023-04-08T13:57:37.832Z,12.27
2023-04-08T14:00:42.001Z,12.33
2023-04-08T14:03:44.782Z,12.39
2023-04-08T14:06:47.696Z,12.51
2023-04-08T14:09:50.534Z,12.58
2023-04-08T14:12:53.154Z,12.70
2023-04-08T14:15:58.551Z,12.84
2023-04-08T14:19:01.231Z,12.97
2023-04-08T14:22:04.365Z,13.05
2023-04-08T14:25:07.517Z,13.04
2023-04-08T14:28:10.417Z,13.06
2023-04-08T14:31:14.713Z,13.09
2023-04-08T14:34:17.477Z,13.06
2023-04-08T14:37:20.515Z,13.00
2023-04-08T14:40:23.673Z,13.00
2023-04-08T14:43:26.516Z,13.02
2023-04-08T14:46:30.761Z,12.97
2023-04-08T14:49:33.636Z,12.92
2023-04-08T14:52:36.455Z,12.85
2023-04-08T14:55:39.825Z,12.82
2023-04-08T14:58:42.547Z,12.72
2023-04-08T15:01:47.049Z,12.59
2023-04-08T15:04:50.097Z,12.51
2023-04-08T15:07:52.783Z,12.44
2023-04-08T15:10:55.706Z,12.39
2023-04-08T15:13:58.503Z,12.34
2023-04-08T15:17:02.730Z,12.38
2023-04-08T15:20:06.481Z,12.37
2023-04-08T15:23:09.176Z,12.41
2023-04-08T15:26:12.121Z,12.39
2023-04-08T15:29:14.936Z,12.37
2023-04-08T15:32:19.114Z,12.28
2023-04-08T15:35:21.909Z,12.17
2023-04-08T15:38:24.757Z,12.12
2023-04-08T15:41:27.497Z,12.13
2023-04-08T15:44:32.761Z,12.13
2023-04-08T15:47:36.842Z,12.07
2023-04-08T15:50:39.683Z,11.98
2023-04-08T15:53:42.623Z,12.01
2023-04-08T15:56:46.596Z,12.00
2023-04-08T15:59:49.569Z,11.95
2023-04-08T16:02:54.198Z,12.01
2023-04-08T16:05:57.136Z,11.97
2023-04-08T16:08:59.906Z,11.92
2023-04-08T16:12:03.020Z,11.85
2023-04-08T16:15:06.724Z,11.78
2023-04-08T16:18:11.011Z,11.75
2023-04-08T16:21:13.823Z,11.81
2023-04-08T16:24:16.632Z,11.81
2023-04-08T16:27:19.451Z,11.78
2023-04-08T16:30:22.307Z,11.82
2023-04-08T16:33:29.956Z,11.82
2023-04-08T16:36:33.098Z,11.77
2023-04-08T16:39:35.950Z,11.62
2023-04-08T16:42:38.783Z,11.50
2023-04-08T16:45:41.610Z,11.42
2023-04-08T16:48:46.351Z,11.35
2023-04-08T16:51:49.097Z,11.25
2023-04-08T16:54:52.311Z,11.26
2023-04-08T16:57:55.119Z,11.12
2023-04-08T17:00:58.285Z,10.97
2023-04-08T17:04:02.736Z,10.92
2023-04-08T17:07:05.705Z,10.94
2023-04-08T17:10:09.876Z,10.80
2023-04-08T17:13:14.746Z,10.80
2023-04-08T17:16:18.804Z,10.82
2023-04-08T17:19:22.981Z,10.79
2023-04-08T17:22:25.740Z,10.76
2023-04-08T17:25:28.536Z,10.78
2023-04-08T17:28:32.550Z,10.75
2023-04-08T17:31:36.196Z,10.78
2023-04-08T17:34:40.940Z,10.88
2023-04-08T17:37:43.634Z,10.84
2023-04-08T17:40:46.535Z,10.74
2023-04-08T17:43:49.492Z,10.70
2023-04-08T17:46:52.573Z,10.63
2023-04-08T17:49:57.084Z,10.69
2023-04-08T17:52:59.871Z,10.71
2023-04-08T17:56:05.354Z,10.69
2023-04-08T17:59:08.136Z,10.63
2023-04-08T18:02:11.079Z,10.61
2023-04-08T18:05:15.637Z,10.60
2023-04-08T18:08:19.073Z,10.59
2023-04-08T18:11:24.231Z,10.51
2023-04-08T18:14:29.152Z,10.54
2023-04-08T18:17:31.935Z,10.61
2023-04-08T18:20:38.367Z,10.66
2023-04-08T18:23:41.206Z,10.70
2023-04-08T18:26:45.403Z,10.62
2023-04-08T18:29:51.046Z,10.58
2023-04-08T18:32:53.934Z,10.46
2023-04-08T18:35:59.611Z,10.44
2023-04-08T18:39:03.111Z,10.39
2023-04-08T18:42:06.063Z,10.39
2023-04-08T18:45:09.477Z,10.38
2023-04-08T18:48:13.268Z,10.39
2023-04-08T18:51:17.716Z,10.39
2023-04-08T18:54:21.921Z,10.40
2023-04-08T18:57:24.943Z,10.39
2023-04-08T19:00:27.904Z,10.37
2023-04-08T19:03:31.026Z,10.36
2023-04-08T19:06:35.920Z,10.38
2023-04-08T19:09:38.810Z,10.45
2023-04-08T19:12:41.858Z,10.51
2023-04-08T19:15:44.619Z,10.50
2023-04-08T19:18:47.559Z,10.52
2023-04-08T19:21:52.025Z,10.55
2023-04-08T19:24:55.282Z,10.52
2023-04-08T19:27:58.118Z,10.51
2023-04-08T19:31:01.256Z,10.48
2023-04-08T19:34:04.086Z,10.47
2023-04-08T19:37:08.615Z,10.41
2023-04-08T19:40:11.923Z,10.35
2023-04-08T19:43:14.773Z,10.39
2023-04-08T19:46:17.730Z,10.36
2023-04-08T19:49:21.824Z,10.28
2023-04-08T19:52:26.616Z,10.31
2023-04-08T19:55:29.750Z,10.30
2023-04-08T19:58:32.565Z,10.35
2023-04-08T20:01:35.854Z,10.36
2023-04-08T20:04:38.977Z,10.32
2023-04-08T20:07:43.251Z,10.32
2023-04-08T20:10:46.550Z,10.32
2023-04-08T20:13:51.644Z,10.33
2023-04-08T20:16:54.364Z,10.27
2023-04-08T20:19:57.211Z,10.24
2023-04-08T20:23:01.592Z,10.19
2023-04-08T20:26:04.600Z,10.17
2023-04-08T20:29:07.568Z,10.18
2023-04-08T20:32:10.786Z,10.17
2023-04-08T20:35:13.702Z,10.12
2023-04-08T20:38:19.501Z,10.03
2023-04-08T20:41:23.932Z,10.01
2023-04-08T20:44:26.986Z,9.88
2023-04-08T20:47:29.723Z,9.84
2023-04-08T20:50:32.902Z,9.84
2023-04-08T20:53:37.704Z,9.86
2023-04-08T20:56:40.610Z,9.82
2023-04-08T20:59:43.330Z,9.87
2023-04-08T21:02:47.603Z,9.81
2023-04-08T21:05:50.772Z,9.82
2023-04-08T21:08:54.836Z,9.80
2023-04-08T21:11:57.524Z,9.78
2023-04-08T21:15:00.278Z,9.72
2023-04-08T21:18:03.849Z,9.72
2023-04-08T21:21:06.981Z,9.66
2023-04-08T21:24:11.374Z,9.57
2023-04-08T21:27:14.075Z,9.48
2023-04-08T21:30:18.043Z,9.35
2023-04-08T21:33:21.049Z,9.34
2023-04-08T21:36:23.780Z,9.29
2023-04-08T21:39:27.988Z,9.20
2023-04-08T21:42:31.221Z,9.08
2023-04-08T21:45:34.395Z,9.02
2023-04-08T21:48:37.259Z,8.97
2023-04-08T21:51:41.019Z,8.90
2023-04-08T21:54:45.239Z,8.89
2023-04-08T21:57:48.969Z,8.80
2023-04-08T22:00:51.660Z,8.71
2023-04-08T22:03:55.611Z,8.64
2023-04-08T22:06:58.546Z,8.52
2023-04-08T22:10:02.730Z,8.45
2023-04-08T22:13:05.366Z,8.38
2023-04-08T22:16:10.024Z,8.31
2023-04-08T22:19:12.740Z,8.31
2023-04-08T22:22:15.441Z,8.28
2023-04-08T22:25:19.802Z,8.17
2023-04-08T22:28:23.288Z,8.05
2023-04-08T22:31:26.286Z,7.96
2023-04-08T22:34:29.032Z,7.91
2023-04-08T22:37:32.627Z,7.81
2023-04-08T22:40:37.776Z,7.74
2023-04-08T22:43:40.628Z,7.72
2023-04-08T22:46:43.387Z,7.65
2023-04-08T22:49:46.057Z,7.65
2023-04-08T22:52:48.874Z,7.65
2023-04-08T22:55:52.971Z,7.67
2023-04-08T22:58:56.237Z,7.64
2023-04-08T23:01:59.017Z,7.64
2023-04-08T23:05:01.857Z,7.53
2023-04-08T23:08:04.749Z,7.47
2023-04-08T23:11:09.763Z,7.40
2023-04-08T23:14:12.509Z,7.32
2023-04-08T23:17:15.374Z,7.35
2023-04-08T23:20:18.279Z,7.44
2023-04-08T23:23:21.507Z,7.43
2023-04-08T23:26:26.015Z,7.41
2023-04-08T23:29:29.279Z,7.38
2023-04-08T23:32:32.348Z,7.37
2023-04-08T23:35:35.427Z,7.39
2023-04-08T23:38:38.492Z,7.37
2023-04-08T23:41:42.600Z,7.36
2023-04-08T23:44:45.315Z,7.39
2023-04-08T23:47:48.049Z,7.48
2023-04-08T23:50:52.119Z,7.43
2023-04-08T23:53:54.860Z,7.38
2023-04-08T23:56:58.866Z,7.35
